Terminal Aerodrome Forecast
Issued by NWS

Home | Current Version | Previous Version | Text Only | Print | Product List | Glossary On
Versions: 1 2 3 4 5 6 7 8 9 10 11 12 13 14 15 16 17
000
FTUS41 KCAR 291700 RRA
TAFPQI
TAF
KPQI 291745Z 2918/3018 25010G20KT P6SM -SHRA SCT025 BKN035
     FM292000 24008KT P6SM SCT040
     FM300200 00000KT P6SM SKC
     FM300700 00000KT 1 1/2SM BR SKC
     FM300900 00000KT 1/2SM FG SCT001
     FM301100 17004KT P6SM SKC
      AMD LTD TO CLD VIS AND WIND=

USA.gov is the U.S. government's official web portal to all federal, state and local government web resources and services.